Time;durP1;ratioP1;P1;durP2;ratioP2;P2;SDS_P1;SDS_P2;PMS_P1;PMS_P2;Temp;Humidity;BMP_temperature;BMP_pressure;BME280_temperature;BME280_humidity;BME280_pressure;Samples;Min_cycle;Max_cycle;Signal;HPM_P1;HPM_P2
2023/04/25 04:18:29;;;;;;;8.93;1.55;;;12.00;57.40;;;;;;4897127;29;20112;-72
2023/04/25 04:20:54;;;;;;;10.00;1.50;;;12.20;57.40;;;;;;4901236;29;20143;-75
2023/04/25 04:23:22;;;;;;;9.73;1.63;;;12.50;57.40;;;;;;4915721;29;20123;-72
2023/04/25 04:25:48;;;;;;;7.97;1.70;;;12.80;57.50;;;;;;4913792;29;20047;-72
2023/04/25 04:28:13;;;;;;;5.03;1.23;;;13.10;57.30;;;;;;4920039;29;20099;-73
2023/04/25 04:30:41;;;;;;;6.68;1.52;;;13.40;57.10;;;;;;4904528;29;20052;-73
2023/04/25 04:33:07;;;;;;;12.75;1.73;;;13.60;57.00;;;;;;4901034;29;20059;-73
2023/04/25 04:35:32;;;;;;;16.88;1.60;;;13.80;56.90;;;;;;4901115;29;20048;-73
2023/04/25 04:37:58;;;;;;;9.68;1.75;;;14.00;57.20;;;;;;4901262;29;20055;-74
2023/04/25 04:40:25;;;;;;;12.77;2.03;;;14.10;57.40;;;;;;4900934;29;20048;-74
2023/04/25 04:42:51;;;;;;;7.43;1.60;;;14.30;57.50;;;;;;4900264;29;20074;-74
2023/04/25 04:45:17;;;;;;;11.00;1.50;;;14.30;57.70;;;;;;4900938;29;20518;-73
2023/04/25 04:47:43;;;;;;;5.82;1.17;;;14.40;57.90;;;;;;4900789;29;20052;-75
2023/04/25 04:50:10;;;;;;;13.77;1.80;;;14.40;58.00;;;;;;4900739;29;20333;-74
2023/04/25 04:52:36;;;;;;;12.13;1.92;;;14.40;59.00;;;;;;4899690;29;20584;-76
2023/04/25 04:55:03;;;;;;;11.38;2.22;;;14.60;58.70;;;;;;4900749;29;20050;-72
2023/04/25 04:57:30;;;;;;;7.78;1.73;;;14.70;58.60;;;;;;4900726;29;20116;-73
2023/04/25 04:59:56;;;;;;;9.18;1.73;;;14.90;58.70;;;;;;4900805;29;20455;-73
2023/04/25 05:02:22;;;;;;;17.67;2.92;;;15.00;58.90;;;;;;4900035;29;20443;-75
2023/04/25 05:04:48;;;;;;;16.77;2.95;;;15.10;59.20;;;;;;4899999;29;20440;-77
2023/04/25 05:07:14;;;;;;;15.73;3.13;;;15.20;59.40;;;;;;4901008;29;20067;-76
2023/04/25 05:09:40;;;;;;;18.35;2.70;;;15.30;59.60;;;;;;4900668;29;20045;-75
2023/04/25 05:12:06;;;;;;;33.85;4.72;;;15.40;59.70;;;;;;4899970;29;20519;-76
2023/04/25 05:14:32;;;;;;;27.02;4.32;;;15.50;60.30;;;;;;4884147;29;20052;-71
2023/04/25 05:16:58;;;;;;;28.15;4.05;;;15.50;60.80;;;;;;4897794;29;20056;-76
2023/04/25 05:19:24;;;;;;;31.50;3.55;;;15.50;61.00;;;;;;4881495;29;20068;-75
2023/04/25 05:21:50;;;;;;;22.55;3.72;;;15.60;61.30;;;;;;4875555;29;20049;-75
2023/04/25 05:24:15;;;;;;;20.40;3.33;;;15.60;61.40;;;;;;4870455;29;20055;-76
2023/04/25 05:26:41;;;;;;;26.60;3.63;;;15.60;62.00;;;;;;4862864;29;20057;-76
2023/04/25 05:29:07;;;;;;;26.40;3.58;;;15.60;61.80;;;;;;4862935;29;20049;-76
2023/04/25 05:31:33;;;;;;;26.13;4.10;;;15.60;62.20;;;;;;4869784;29;20053;-76
2023/04/25 05:33:59;;;;;;;26.60;3.80;;;15.60;62.60;;;;;;4880859;29;20061;-76
2023/04/25 05:36:25;;;;;;;26.05;3.53;;;15.70;62.80;;;;;;4881667;29;20045;-75
2023/04/25 05:38:51;;;;;;;34.92;4.55;;;15.70;62.90;;;;;;4881514;29;20116;-74
2023/04/25 05:41:17;;;;;;;26.70;4.63;;;15.80;63.00;;;;;;4880977;29;20409;-78
2023/04/25 05:43:46;;;;;;;32.88;3.45;;;15.80;63.00;;;;;;4882221;29;20495;-75
2023/04/25 05:46:12;;;;;;;34.58;4.90;;;15.90;63.40;;;;;;4881565;29;20041;-75
2023/04/25 05:48:38;;;;;;;36.03;5.10;;;16.00;63.30;;;;;;4881782;29;20337;-74
2023/04/25 05:51:04;;;;;;;29.83;4.88;;;16.00;62.80;;;;;;4880863;29;20049;-74
2023/04/25 05:53:30;;;;;;;41.67;4.55;;;16.00;62.60;;;;;;4874782;29;20048;-73
2023/04/25 05:55:56;;;;;;;38.10;4.80;;;16.00;63.00;;;;;;4872780;29;20041;-73
2023/04/25 05:58:22;;;;;;;26.15;4.15;;;16.10;63.40;;;;;;4881010;29;20049;-73
2023/04/25 06:00:47;;;;;;;32.28;4.47;;;16.10;62.60;;;;;;4881340;29;20152;-74
2023/04/25 06:03:14;;;;;;;19.90;3.67;;;16.10;61.80;;;;;;4865134;29;20117;-76
2023/04/25 06:05:43;;;;;;;23.23;3.75;;;16.20;61.40;;;;;;4881023;29;20135;-75
2023/04/25 06:08:10;;;;;;;30.77;4.25;;;16.20;60.30;;;;;;4880875;29;20152;-76
2023/04/25 06:10:36;;;;;;;22.38;3.25;;;16.20;60.20;;;;;;4881217;29;20045;-75
2023/04/25 06:13:02;;;;;;;24.67;3.65;;;16.10;60.20;;;;;;4881179;29;20472;-75
2023/04/25 06:15:28;;;;;;;23.00;3.13;;;16.20;60.50;;;;;;4880967;29;20049;-76
2023/04/25 06:17:54;;;;;;;33.13;3.45;;;16.10;60.50;;;;;;4889691;29;20360;-74
2023/04/25 06:20:22;;;;;;;24.40;3.97;;;16.10;61.10;;;;;;4883825;29;20056;-75
2023/04/25 06:22:49;;;;;;;30.58;3.95;;;16.10;61.30;;;;;;4899835;29;20049;-73
2023/04/25 06:25:15;;;;;;;29.40;3.67;;;16.10;61.40;;;;;;4884932;29;20049;-72
2023/04/25 06:27:41;;;;;;;18.42;2.20;;;16.00;60.90;;;;;;4893527;29;20123;-72
2023/04/25 06:30:07;;;;;;;18.88;2.80;;;15.80;57.20;;;;;;4900163;29;20099;-74
2023/04/25 06:32:34;;;;;;;19.65;2.45;;;15.50;57.10;;;;;;4880375;29;20065;-76
2023/04/25 06:35:00;;;;;;;18.98;2.88;;;15.50;58.50;;;;;;4880898;29;20057;-73
2023/04/25 06:37:26;;;;;;;16.17;2.40;;;15.40;59.00;;;;;;4891405;29;20037;-73
2023/04/25 06:39:52;;;;;;;18.25;3.30;;;15.40;59.30;;;;;;4899745;29;20130;-73
2023/04/25 06:42:17;;;;;;;21.17;2.15;;;15.50;59.70;;;;;;4899322;29;20134;-73
2023/04/25 06:44:43;;;;;;;20.67;2.65;;;15.50;59.90;;;;;;4899723;29;20108;-73
2023/04/25 06:47:09;;;;;;;10.60;1.80;;;15.60;60.10;;;;;;4891191;29;20060;-74
2023/04/25 06:49:34;;;;;;;21.83;2.95;;;15.60;60.20;;;;;;4880887;29;20503;-73
2023/04/25 06:52:00;;;;;;;16.90;2.67;;;15.60;60.20;;;;;;4880687;29;20049;-74
2023/04/25 06:54:28;;;;;;;21.60;4.15;;;15.70;60.10;;;;;;4883976;29;20060;-76
2023/04/25 06:56:54;;;;;;;25.45;4.00;;;15.60;60.10;;;;;;4890263;29;20079;-71
2023/04/25 06:59:20;;;;;;;14.30;2.60;;;15.60;60.40;;;;;;4902396;29;20056;-75
2023/04/25 07:01:45;;;;;;;21.08;2.88;;;15.60;60.40;;;;;;4903274;29;20059;-74
2023/04/25 07:04:11;;;;;;;24.92;2.90;;;15.60;60.40;;;;;;4902980;29;20049;-75
2023/04/25 07:06:42;;;;;;;22.58;3.20;;;15.60;60.50;;;;;;4898057;29;20060;-75
2023/04/25 07:09:11;;;;;;;13.10;2.00;;;15.50;60.50;;;;;;4883858;29;20080;-75
2023/04/25 07:11:37;;;;;;;17.15;2.35;;;15.50;60.60;;;;;;4884157;29;20464;-75
2023/04/25 07:14:03;;;;;;;21.15;2.15;;;15.50;60.60;;;;;;4883435;29;20049;-75
2023/04/25 07:16:29;;;;;;;17.17;3.03;;;15.40;60.70;;;;;;4886058;29;20364;-75
2023/04/25 07:18:55;;;;;;;14.82;2.13;;;15.40;60.80;;;;;;4901763;29;20053;-75
2023/04/25 07:21:21;;;;;;;12.63;1.90;;;15.40;60.90;;;;;;4902495;29;20052;-75
2023/04/25 07:23:47;;;;;;;11.52;1.95;;;15.30;60.90;;;;;;4902386;29;20511;-75
2023/04/25 07:26:13;;;;;;;9.98;1.52;;;15.30;61.00;;;;;;4902237;29;20359;-75
2023/04/25 07:28:39;;;;;;;10.88;1.88;;;15.30;61.70;;;;;;4883528;29;20099;-75
2023/04/25 07:31:05;;;;;;;12.43;1.80;;;15.30;61.10;;;;;;4884052;29;20089;-76
2023/04/25 07:33:31;;;;;;;5.75;1.70;;;15.20;61.20;;;;;;4883483;29;20484;-75
2023/04/25 07:35:56;;;;;;;9.32;1.52;;;15.20;61.70;;;;;;4882446;29;20560;-75
2023/04/25 07:38:22;;;;;;;6.90;1.50;;;15.20;62.20;;;;;;4899006;29;20124;-75
2023/04/25 07:40:49;;;;;;;13.23;2.08;;;15.20;62.50;;;;;;4902151;29;20511;-76
2023/04/25 07:43:16;;;;;;;8.07;1.40;;;15.20;62.60;;;;;;4901811;29;20448;-75
2023/04/25 07:45:46;;;;;;;9.48;1.58;;;15.20;62.70;;;;;;4901949;29;20078;-75
2023/04/25 07:48:16;;;;;;;9.18;1.98;;;15.20;62.70;;;;;;4900019;29;20507;-75
2023/04/25 07:50:41;;;;;;;8.65;1.30;;;15.10;63.30;;;;;;4885129;29;20482;-75
2023/04/25 07:53:07;;;;;;;7.68;1.30;;;15.10;63.00;;;;;;4901742;29;20052;-75
2023/04/25 07:55:33;;;;;;;12.35;1.38;;;15.20;63.30;;;;;;4901695;29;20048;-76
2023/04/25 07:57:58;;;;;;;8.15;1.38;;;15.20;63.40;;;;;;4889178;29;20049;-75
2023/04/25 08:00:24;;;;;;;11.07;2.05;;;15.20;63.40;;;;;;4897716;29;20452;-75
2023/04/25 08:02:50;;;;;;;7.70;1.55;;;15.10;64.00;;;;;;4882731;29;20040;-73
2023/04/25 08:05:16;;;;;;;7.97;1.75;;;15.20;63.40;;;;;;4896503;29;20044;-75
2023/04/25 08:07:43;;;;;;;8.27;1.83;;;15.20;63.10;;;;;;4876046;29;20056;-77
2023/04/25 08:10:09;;;;;;;8.27;1.75;;;15.20;62.80;;;;;;4901243;29;20075;-74
2023/04/25 08:12:35;;;;;;;15.25;1.88;;;15.20;62.60;;;;;;4901448;29;20063;-68
2023/04/25 08:15:01;;;;;;;8.15;1.85;;;15.10;62.40;;;;;;4901409;29;20053;-75
2023/04/25 08:17:27;;;;;;;7.65;1.38;;;15.20;62.30;;;;;;4893195;29;20136;-75
2023/04/25 08:19:53;;;;;;;10.43;1.80;;;15.20;62.20;;;;;;4882115;29;20148;-68
2023/04/25 08:22:18;;;;;;;8.60;1.30;;;15.20;62.20;;;;;;4883045;29;20056;-68
2023/04/25 08:24:44;;;;;;;13.55;1.45;;;15.20;62.00;;;;;;4872839;29;20121;-70
2023/04/25 08:27:10;;;;;;;6.45;1.38;;;15.20;61.60;;;;;;4869213;29;20045;-69
2023/04/25 08:29:36;;;;;;;14.38;1.92;;;15.20;61.40;;;;;;4880484;29;20053;-69
2023/04/25 08:32:02;;;;;;;14.93;1.95;;;15.10;61.00;;;;;;4882425;29;20059;-73
2023/04/25 08:34:28;;;;;;;15.95;1.80;;;15.10;60.20;;;;;;4882515;29;20052;-73
2023/04/25 08:36:53;;;;;;;16.70;2.78;;;15.10;59.90;;;;;;4881958;29;20053;-73
2023/04/25 08:39:20;;;;;;;16.45;2.85;;;15.10;60.10;;;;;;4882531;29;20523;-72
2023/04/25 08:41:46;;;;;;;18.30;3.13;;;15.10;60.40;;;;;;4882880;29;20057;-75
2023/04/25 08:44:13;;;;;;;19.73;2.28;;;15.10;60.80;;;;;;4882335;29;20119;-73
2023/04/25 08:46:42;;;;;;;23.33;3.30;;;15.10;60.90;;;;;;4882086;29;20041;-73
2023/04/25 08:49:11;;;;;;;21.30;3.35;;;15.20;61.00;;;;;;4880298;29;20057;-73
2023/04/25 08:51:45;;;;;;;22.08;3.13;;;15.30;61.00;;;;;;4882378;29;20171;-79
2023/04/25 08:54:12;;;;;;;17.00;2.45;;;15.40;61.00;;;;;;4882425;29;20067;-73
2023/04/25 08:56:40;;;;;;;24.00;3.38;;;15.50;61.00;;;;;;4880898;29;20041;-72
2023/04/25 08:59:07;;;;;;;26.38;2.90;;;15.60;61.10;;;;;;4864006;29;20342;-74
2023/04/25 09:01:35;;;;;;;18.20;3.15;;;15.60;61.10;;;;;;4863613;29;20121;-74
2023/04/25 09:04:02;;;;;;;17.67;3.30;;;15.60;61.10;;;;;;4863336;29;20053;-74
2023/04/25 09:06:30;;;;;;;23.08;2.72;;;15.60;61.10;;;;;;4863284;29;20050;-74
2023/04/25 09:09:05;;;;;;;24.23;2.78;;;15.70;61.20;;;;;;4879961;29;20063;-74
2023/04/25 09:11:31;;;;;;;18.48;3.45;;;15.60;61.10;;;;;;4881701;29;20388;-74
2023/04/25 09:14:14;;;;;;;18.65;3.00;;;15.60;61.20;;;;;;4881935;29;20052;-74
2023/04/25 09:16:55;;;;;;;17.83;2.78;;;15.60;61.30;;;;;;4881317;29;20352;-74
2023/04/25 09:19:26;;;;;;;13.82;2.22;;;15.50;61.40;;;;;;4881488;29;20060;-74
2023/04/25 09:21:58;;;;;;;15.63;2.15;;;15.50;61.90;;;;;;4881434;29;20053;-74
2023/04/25 09:24:37;;;;;;;15.27;2.38;;;15.50;62.30;;;;;;4881532;29;20056;-74
2023/04/25 09:27:08;;;;;;;16.10;2.15;;;15.50;62.60;;;;;;4883976;29;20057;-74
2023/04/25 09:29:40;;;;;;;15.15;2.40;;;15.50;62.90;;;;;;4884262;29;20337;-75
2023/04/25 09:32:18;;;;;;;9.43;1.83;;;15.50;63.00;;;;;;4899827;29;20060;-74
2023/04/25 09:34:52;;;;;;;14.88;1.85;;;15.40;63.10;;;;;;4900189;29;20071;-74
2023/04/25 09:37:20;;;;;;;14.63;2.35;;;15.40;63.10;;;;;;4900086;29;20056;-74
2023/04/25 09:39:50;;;;;;;11.45;1.83;;;15.40;63.20;;;;;;4900161;29;20456;-74
2023/04/25 09:42:17;;;;;;;6.07;1.75;;;15.40;63.30;;;;;;4899651;29;20041;-74
2023/04/25 09:44:46;;;;;;;13.23;2.65;;;15.40;63.50;;;;;;4899646;29;20480;-74
2023/04/25 09:47:15;;;;;;;8.93;1.38;;;15.40;63.60;;;;;;4899605;29;20471;-74
2023/04/25 09:49:42;;;;;;;7.45;1.58;;;15.30;63.60;;;;;;4900045;29;20063;-74
2023/04/25 09:52:08;;;;;;;11.65;1.70;;;15.30;63.70;;;;;;4900276;29;20462;-75
2023/04/25 09:54:34;;;;;;;5.57;1.17;;;15.30;63.70;;;;;;4900193;29;20503;-74
2023/04/25 09:57:14;;;;;;;7.30;1.45;;;15.30;63.80;;;;;;4899560;29;20127;-75
2023/04/25 09:59:47;;;;;;;10.23;1.60;;;15.30;63.80;;;;;;4900012;29;20062;-75
2023/04/25 10:02:15;;;;;;;7.83;2.03;;;15.30;63.90;;;;;;4900207;29;20372;-75
2023/04/25 10:04:42;;;;;;;6.75;1.45;;;15.30;63.90;;;;;;4899795;29;20289;-75
2023/04/25 10:07:09;;;;;;;8.02;1.80;;;15.20;64.00;;;;;;4899439;29;20400;-76
2023/04/25 10:09:39;;;;;;;7.78;1.40;;;15.20;63.90;;;;;;4900197;29;20392;-74
2023/04/25 10:12:05;;;;;;;9.43;1.35;;;15.20;63.60;;;;;;4899891;29;20052;-78
2023/04/25 10:14:32;;;;;;;12.95;2.78;;;15.20;63.60;;;;;;4893269;29;20475;-73
2023/04/25 10:16:58;;;;;;;19.60;2.80;;;15.20;62.60;;;;;;4895179;29;20436;-77
2023/04/25 10:19:26;;;;;;;17.40;2.47;;;15.20;63.90;;;;;;4880871;29;20049;-81
2023/04/25 10:22:04;;;;;;;16.67;2.65;;;15.20;64.30;;;;;;4880228;29;20135;-80
2023/04/25 10:24:31;;;;;;;29.83;4.78;;;15.30;64.70;;;;;;4881455;29;20412;-80
2023/04/25 10:26:59;;;;;;;26.17;3.78;;;15.30;65.00;;;;;;4872835;29;20053;-82
2023/04/25 10:29:26;;;;;;;40.05;5.93;;;15.30;65.30;;;;;;4886811;29;20052;-79
2023/04/25 10:31:52;;;;;;;38.45;4.75;;;15.30;65.50;;;;;;4886044;29;20087;-78
2023/04/25 10:34:19;;;;;;;32.83;6.10;;;15.30;66.00;;;;;;4884690;29;20049;-75
2023/04/25 10:36:54;;;;;;;46.38;4.72;;;15.30;66.00;;;;;;4890323;29;20459;-78
2023/04/25 10:39:26;;;;;;;35.40;5.35;;;15.30;66.00;;;;;;4903346;29;20056;-76
2023/04/25 10:41:56;;;;;;;42.00;5.75;;;15.40;65.70;;;;;;4903043;29;20044;-76
2023/04/25 10:44:22;;;;;;;38.65;5.78;;;15.50;65.60;;;;;;4903336;29;20044;-76
2023/04/25 10:46:47;;;;;;;37.13;4.97;;;15.60;65.50;;;;;;4896345;29;20070;-78
2023/04/25 10:49:35;;;;;;;36.15;5.53;;;15.70;65.40;;;;;;4883302;29;20055;-76
2023/04/25 10:52:12;;;;;;;38.30;4.60;;;15.80;65.40;;;;;;4884288;29;20045;-78
2023/04/25 10:54:51;;;;;;;39.03;5.65;;;15.90;65.50;;;;;;4884242;29;20073;-75
2023/04/25 10:57:31;;;;;;;42.88;6.68;;;16.00;65.60;;;;;;4893943;29;20049;-76
2023/04/25 11:00:10;;;;;;;50.90;6.15;;;16.10;65.70;;;;;;4902895;29;20131;-78
2023/04/25 11:02:46;;;;;;;41.10;6.68;;;16.20;65.70;;;;;;4902708;29;20056;-76
2023/04/25 11:05:30;;;;;;;43.25;7.22;;;16.20;65.70;;;;;;4902620;29;20044;-76
2023/04/25 11:07:59;;;;;;;33.10;5.45;;;16.30;66.10;;;;;;4887215;29;20049;-73
2023/04/25 11:10:30;;;;;;;50.33;6.35;;;16.30;66.10;;;;;;4883711;29;20048;-70
2023/04/25 11:12:56;;;;;;;44.80;6.88;;;16.30;65.80;;;;;;4886755;29;20120;-70
2023/04/25 11:15:22;;;;;;;35.40;4.80;;;16.30;65.00;;;;;;4902630;29;20123;-73
2023/04/25 11:17:47;;;;;;;32.42;4.47;;;16.30;64.00;;;;;;4902493;29;20432;-76
2023/04/25 11:20:15;;;;;;;30.35;4.50;;;16.30;63.10;;;;;;4902293;29;20049;-75
2023/04/25 11:22:43;;;;;;;28.25;4.32;;;16.20;62.20;;;;;;4901819;29;20190;-76
2023/04/25 11:25:11;;;;;;;21.20;2.95;;;16.20;62.50;;;;;;4902459;29;20135;-76
2023/04/25 11:27:53;;;;;;;10.68;1.65;;;16.20;62.30;;;;;;4902384;29;20056;-71
2023/04/25 11:30:21;;;;;;;10.65;1.52;;;16.10;60.90;;;;;;4902395;29;20353;-73
2023/04/25 11:32:47;;;;;;;10.85;1.83;;;16.00;60.30;;;;;;4901225;29;20048;-75
2023/04/25 11:35:13;;;;;;;4.95;1.10;;;15.90;60.20;;;;;;4920038;29;20368;-80
2023/04/25 11:37:40;;;;;;;8.55;1.52;;;15.90;60.00;;;;;;4900243;29;20475;-74
2023/04/25 11:40:06;;;;;;;8.50;1.17;;;15.80;59.50;;;;;;4895769;29;20107;-75
2023/04/25 11:42:34;;;;;;;7.45;1.45;;;15.70;59.20;;;;;;4896843;29;20119;-75
2023/04/25 11:45:00;;;;;;;5.53;1.08;;;15.60;59.10;;;;;;4901812;29;20120;-75
2023/04/25 11:47:33;;;;;;;12.20;2.67;;;15.40;59.10;;;;;;4896565;29;20064;-72
2023/04/25 11:50:01;;;;;;;13.43;2.40;;;15.30;59.80;;;;;;4901937;29;20132;-75
2023/04/25 11:52:43;;;;;;;10.57;2.33;;;15.30;59.80;;;;;;4900978;29;20512;-75
2023/04/25 11:55:14;;;;;;;8.60;1.65;;;15.20;59.60;;;;;;4901685;29;20048;-75
2023/04/25 11:57:42;;;;;;;5.30;0.98;;;15.10;60.30;;;;;;4901077;29;20053;-76
2023/04/25 12:00:25;;;;;;;8.60;2.13;;;15.10;60.50;;;;;;4900648;29;20048;-75
2023/04/25 12:02:53;;;;;;;6.13;1.05;;;15.00;60.30;;;;;;4901840;29;20157;-75
2023/04/25 12:05:20;;;;;;;13.82;1.80;;;15.00;60.50;;;;;;4901773;29;20045;-75
2023/04/25 12:07:46;;;;;;;5.57;1.15;;;14.90;60.50;;;;;;4901098;29;20486;-74
2023/04/25 12:10:14;;;;;;;8.20;1.73;;;14.90;60.70;;;;;;4901110;29;20135;-75
2023/04/25 12:12:46;;;;;;;8.82;1.25;;;14.90;60.70;;;;;;4901569;29;20056;-75
2023/04/25 12:15:40;;;;;;;7.63;1.60;;;14.90;60.80;;;;;;4901312;29;20362;-76
2023/04/25 12:18:06;;;;;;;4.25;0.82;;;14.90;61.10;;;;;;4899492;29;20064;-75
2023/04/25 12:20:33;;;;;;;6.00;1.27;;;14.90;61.20;;;;;;4901081;29;20053;-76
2023/04/25 12:22:59;;;;;;;6.57;1.33;;;14.90;61.30;;;;;;4900744;29;20140;-75
2023/04/25 12:25:41;;;;;;;6.30;1.10;;;14.90;61.40;;;;;;4901202;29;20088;-75
2023/04/25 12:28:20;;;;;;;6.50;1.02;;;14.90;61.40;;;;;;4900945;29;20055;-76
2023/04/25 12:31:04;;;;;;;7.82;1.42;;;14.90;61.20;;;;;;4899493;29;20096;-75
2023/04/25 12:33:34;;;;;;;4.82;1.25;;;14.90;61.40;;;;;;4899838;29;20052;-76
2023/04/25 12:36:03;;;;;;;3.35;1.00;;;14.90;61.50;;;;;;4894679;29;20045;-75
2023/04/25 12:38:31;;;;;;;19.98;1.85;;;14.90;61.60;;;;;;4891742;29;20052;-75
2023/04/25 12:40:58;;;;;;;4.38;1.25;;;14.90;61.70;;;;;;4883611;29;20463;-75
2023/04/25 12:43:24;;;;;;;4.38;1.02;;;14.90;61.80;;;;;;4900132;29;20061;-75
2023/04/25 12:45:51;;;;;;;5.05;1.33;;;14.90;61.90;;;;;;4900246;29;20117;-75
2023/04/25 12:48:18;;;;;;;14.85;1.67;;;15.00;61.90;;;;;;4900328;29;20123;-75
2023/04/25 12:50:43;;;;;;;8.15;1.50;;;15.00;61.90;;;;;;4901246;29;20060;-75
2023/04/25 12:53:11;;;;;;;4.47;1.05;;;15.00;61.90;;;;;;4900877;29;20044;-75
2023/04/25 12:55:37;;;;;;;7.70;1.13;;;15.00;61.70;;;;;;4900738;29;20459;-75
2023/04/25 12:58:03;;;;;;;7.20;1.38;;;15.10;61.50;;;;;;4900191;29;20056;-75
2023/04/25 13:00:29;;;;;;;5.60;1.27;;;15.10;61.40;;;;;;4900486;29;20045;-75
2023/04/25 13:02:55;;;;;;;5.13;1.30;;;15.10;61.10;;;;;;4900705;29;20091;-75
2023/04/25 13:05:21;;;;;;;18.95;2.70;;;15.10;61.40;;;;;;4899575;29;20080;-75
2023/04/25 13:07:47;;;;;;;19.13;2.58;;;15.10;61.80;;;;;;4899144;29;20048;-77
2023/04/25 13:10:13;;;;;;;21.77;2.95;;;15.10;61.60;;;;;;4899654;29;20053;-75
2023/04/25 13:12:38;;;;;;;14.68;2.97;;;15.20;59.40;;;;;;4900771;29;20063;-75
2023/04/25 13:15:05;;;;;;;15.00;2.25;;;15.10;55.60;;;;;;4900320;29;20036;-75
2023/04/25 13:17:30;;;;;;;13.80;2.05;;;15.00;53.40;;;;;;4900008;29;20523;-74
2023/04/25 13:19:56;;;;;;;8.98;1.95;;;14.90;52.80;;;;;;4900063;29;20091;-75
2023/04/25 13:22:22;;;;;;;11.95;1.55;;;14.70;52.20;;;;;;4900983;29;20049;-75
2023/04/25 13:24:47;;;;;;;7.55;1.58;;;14.60;53.90;;;;;;4900495;29;20507;-76
2023/04/25 13:27:13;;;;;;;6.10;1.27;;;14.60;54.60;;;;;;4900997;29;20060;-75
2023/04/25 13:29:40;;;;;;;20.67;2.70;;;14.60;54.70;;;;;;4899403;29;20450;-76
2023/04/25 13:32:06;;;;;;;18.48;3.30;;;14.60;55.50;;;;;;4899754;29;20516;-71
2023/04/25 13:34:32;;;;;;;21.15;2.47;;;14.60;56.60;;;;;;4899589;29;20044;-72
2023/04/25 13:36:58;;;;;;;15.82;2.63;;;14.70;57.20;;;;;;4900069;29;20111;-71
2023/04/25 13:39:24;;;;;;;21.23;3.13;;;14.80;57.70;;;;;;4899515;29;20053;-71
2023/04/25 13:41:50;;;;;;;17.65;3.10;;;14.80;58.00;;;;;;4900110;29;20055;-71
2023/04/25 13:44:16;;;;;;;32.22;4.47;;;14.80;58.30;;;;;;4899683;29;20040;-71
2023/04/25 13:46:42;;;;;;;17.10;3.47;;;14.80;58.60;;;;;;4900152;29;20060;-71
2023/04/25 13:49:08;;;;;;;12.88;2.22;;;14.80;58.90;;;;;;4899687;29;20052;-71
2023/04/25 13:51:33;;;;;;;13.63;2.83;;;14.90;59.10;;;;;;4900095;29;20052;-71
2023/04/25 13:53:59;;;;;;;11.80;2.50;;;14.90;59.30;;;;;;4900679;29;20048;-71
2023/04/25 13:56:25;;;;;;;19.55;2.70;;;14.90;59.40;;;;;;4899918;29;20063;-75
2023/04/25 13:58:51;;;;;;;10.93;2.13;;;14.80;59.30;;;;;;4882802;29;20058;-76
2023/04/25 14:01:18;;;;;;;12.18;1.80;;;14.90;59.60;;;;;;4883857;29;20044;-75
2023/04/25 14:03:44;;;;;;;14.82;2.28;;;14.90;60.20;;;;;;4903268;29;20097;-74
2023/04/25 14:06:10;;;;;;;16.52;2.15;;;14.90;60.80;;;;;;4902536;29;20049;-75
2023/04/25 14:08:36;;;;;;;20.45;2.70;;;14.90;60.30;;;;;;4903781;29;20128;-73
2023/04/25 14:11:03;;;;;;;17.05;2.20;;;14.90;60.50;;;;;;4903071;29;20119;-72
2023/04/25 14:13:28;;;;;;;12.23;2.08;;;15.00;60.70;;;;;;4903180;29;20404;-74
2023/04/25 14:15:54;;;;;;;13.80;2.50;;;15.00;60.80;;;;;;4903546;29;20091;-72
2023/04/25 14:18:20;;;;;;;16.27;2.65;;;15.10;60.90;;;;;;4903325;29;20140;-73
2023/04/25 14:20:46;;;;;;;11.55;1.95;;;15.20;60.90;;;;;;4902888;29;20119;-73
2023/04/25 14:23:12;;;;;;;17.58;3.15;;;15.20;60.90;;;;;;4903451;29;20040;-74
2023/04/25 14:25:38;;;;;;;9.45;1.80;;;15.20;61.70;;;;;;4891431;29;20128;-74
2023/04/25 14:28:03;;;;;;;17.15;2.38;;;15.20;61.10;;;;;;4884567;29;20417;-74
2023/04/25 14:30:29;;;;;;;16.23;3.08;;;15.40;61.40;;;;;;4900512;29;20097;-74
2023/04/25 14:32:55;;;;;;;18.10;2.40;;;15.50;61.20;;;;;;4903025;29;20059;-73
2023/04/25 14:35:21;;;;;;;16.52;2.10;;;15.60;60.60;;;;;;4903241;29;20062;-73
2023/04/25 14:37:47;;;;;;;22.15;2.92;;;15.70;60.20;;;;;;4903493;29;20111;-74
2023/04/25 14:40:15;;;;;;;18.08;2.95;;;15.70;59.90;;;;;;4903043;29;20059;-73
2023/04/25 14:42:41;;;;;;;18.40;3.10;;;15.80;59.40;;;;;;4903475;29;20360;-74
2023/04/25 14:45:08;;;;;;;26.38;3.45;;;15.80;59.10;;;;;;4903139;29;20051;-73
2023/04/25 14:47:36;;;;;;;27.92;3.83;;;15.80;59.30;;;;;;4903015;29;20384;-73
2023/04/25 14:50:02;;;;;;;17.00;2.83;;;15.90;59.80;;;;;;4886226;29;20475;-73
2023/04/25 14:52:28;;;;;;;27.83;3.90;;;15.90;60.30;;;;;;4903192;29;20114;-73
2023/04/25 14:54:53;;;;;;;24.90;4.22;;;15.90;60.70;;;;;;4903637;29;20088;-75
2023/04/25 14:57:19;;;;;;;35.53;4.25;;;16.00;61.10;;;;;;4902737;29;20055;-72
2023/04/25 14:59:45;;;;;;;31.23;4.45;;;16.00;61.40;;;;;;4902617;29;20059;-73
2023/04/25 15:02:11;;;;;;;31.35;5.90;;;16.00;61.90;;;;;;4902427;29;20060;-73
2023/04/25 15:04:37;;;;;;;33.45;4.65;;;16.00;61.90;;;;;;4903009;29;20052;-73
2023/04/25 15:07:03;;;;;;;42.13;5.50;;;16.10;62.40;;;;;;4902832;29;20048;-73
2023/04/25 15:09:30;;;;;;;29.65;5.15;;;16.00;62.50;;;;;;4902430;29;20049;-73
2023/04/25 15:11:56;;;;;;;33.47;5.07;;;16.10;62.60;;;;;;4902204;29;20117;-74
2023/04/25 15:14:22;;;;;;;39.15;5.15;;;16.10;61.80;;;;;;4901964;29;20380;-73
2023/04/25 15:16:48;;;;;;;35.63;4.40;;;16.10;61.40;;;;;;4902534;29;20044;-73
2023/04/25 15:19:14;;;;;;;42.85;5.15;;;16.00;61.20;;;;;;4902187;29;20053;-74
2023/04/25 15:21:40;;;;;;;29.50;4.50;;;16.00;61.20;;;;;;4902799;29;20535;-74
2023/04/25 15:24:06;;;;;;;30.67;4.18;;;16.00;61.20;;;;;;4902314;29;20123;-74
2023/04/25 15:26:31;;;;;;;26.63;3.90;;;16.00;61.20;;;;;;4902539;29;20044;-73
2023/04/25 15:28:57;;;;;;;37.22;4.32;;;16.00;61.20;;;;;;4902409;29;20059;-74
2023/04/25 15:31:23;;;;;;;27.90;4.57;;;16.10;61.10;;;;;;4902945;29;20063;-74
2023/04/25 15:33:49;;;;;;;24.67;4.10;;;16.10;61.10;;;;;;4902599;29;20351;-73
2023/04/25 15:36:16;;;;;;;23.13;4.50;;;16.20;61.00;;;;;;4902126;29;20123;-73
2023/04/25 15:38:42;;;;;;;23.20;3.15;;;16.30;60.90;;;;;;4901293;29;20092;-73
2023/04/25 15:41:08;;;;;;;20.92;3.42;;;16.40;60.70;;;;;;4901897;29;20468;-74
2023/04/25 15:43:37;;;;;;;19.60;3.58;;;16.50;60.50;;;;;;4902190;29;20107;-73
2023/04/25 15:46:03;;;;;;;23.52;3.22;;;16.60;60.50;;;;;;4901831;29;20040;-73
2023/04/25 15:48:31;;;;;;;19.00;3.25;;;16.70;60.30;;;;;;4902043;29;20364;-73
2023/04/25 15:50:57;;;;;;;20.83;3.00;;;16.80;60.30;;;;;;4902657;29;20441;-74
2023/04/25 15:53:24;;;;;;;15.00;2.78;;;16.80;60.30;;;;;;4902152;29;20057;-74
2023/04/25 15:55:50;;;;;;;20.10;2.55;;;16.90;60.30;;;;;;4901275;29;20053;-73
2023/04/25 15:58:15;;;;;;;15.95;3.03;;;16.90;60.40;;;;;;4901687;29;20049;-73
2023/04/25 16:00:42;;;;;;;9.48;2.30;;;16.90;60.40;;;;;;4902083;29;20072;-72
2023/04/25 16:03:08;;;;;;;11.38;2.38;;;16.90;60.40;;;;;;4902094;29;20048;-74
2023/04/25 16:05:34;;;;;;;15.82;2.08;;;16.90;60.00;;;;;;4900635;29;20140;-76
2023/04/25 16:07:59;;;;;;;20.48;3.72;;;16.90;60.00;;;;;;4878989;29;20135;-74
2023/04/25 16:10:25;;;;;;;25.90;4.15;;;16.90;60.20;;;;;;4900273;29;20087;-76
2023/04/25 16:12:51;;;;;;;20.42;3.33;;;16.80;60.80;;;;;;4901473;29;20083;-73
2023/04/25 16:15:17;;;;;;;20.15;3.78;;;16.80;61.40;;;;;;4901422;29;20475;-74
2023/04/25 16:17:43;;;;;;;31.80;4.18;;;16.70;61.70;;;;;;4898124;29;20068;-74
2023/04/25 16:20:11;;;;;;;24.08;3.65;;;16.70;61.90;;;;;;4900728;29;20052;-75
2023/04/25 16:22:41;;;;;;;22.52;3.20;;;16.70;62.10;;;;;;4897109;29;20057;-74
2023/04/25 16:25:08;;;;;;;22.95;3.97;;;16.70;62.30;;;;;;4900140;29;20084;-75
2023/04/25 16:27:34;;;;;;;19.88;2.83;;;16.80;62.40;;;;;;4894557;29;20395;-76
2023/04/25 16:30:00;;;;;;;21.35;3.35;;;16.80;62.60;;;;;;4874429;29;20084;-75
2023/04/25 16:32:27;;;;;;;23.30;3.17;;;16.70;62.80;;;;;;4901190;29;20052;-75
2023/04/25 16:34:52;;;;;;;31.20;3.83;;;16.70;62.90;;;;;;4900698;29;20056;-74
2023/04/25 16:37:18;;;;;;;20.65;3.67;;;16.70;63.60;;;;;;4900447;29;20053;-73
2023/04/25 16:39:44;;;;;;;36.08;4.38;;;16.70;63.10;;;;;;4901386;29;20160;-74
2023/04/25 16:42:10;;;;;;;30.00;4.22;;;16.70;63.20;;;;;;4901072;29;20056;-74
2023/04/25 16:44:36;;;;;;;22.10;3.55;;;16.70;63.40;;;;;;4901374;29;20468;-75
2023/04/25 16:47:02;;;;;;;26.90;4.60;;;16.70;63.60;;;;;;4900721;29;20041;-75
2023/04/25 16:49:28;;;;;;;27.30;4.30;;;16.70;63.90;;;;;;4900773;29;20081;-74
2023/04/25 16:51:54;;;;;;;21.83;4.18;;;16.60;64.10;;;;;;4901140;29;20426;-75
2023/04/25 16:54:20;;;;;;;28.17;4.30;;;16.60;64.30;;;;;;4900817;29;20139;-74
2023/04/25 16:56:46;;;;;;;29.70;4.68;;;16.50;64.30;;;;;;4899506;29;20159;-74